createdAt,value
2023-04-06T00:01:45.531Z,2.53
2023-04-06T00:03:47.285Z,3.15
2023-04-06T00:05:49.761Z,2.80
2023-04-06T00:07:51.520Z,2.83
2023-04-06T00:09:53.157Z,2.90
2023-04-06T00:11:54.818Z,2.85
2023-04-06T00:13:56.442Z,2.50
2023-04-06T00:15:58.199Z,3.10
2023-04-06T00:18:00.184Z,2.72
2023-04-06T00:20:02.069Z,2.63
2023-04-06T00:22:03.871Z,2.67
2023-04-06T00:24:05.957Z,2.58
2023-04-06T00:26:07.796Z,2.45
2023-04-06T00:28:09.526Z,2.63
2023-04-06T00:30:11.589Z,2.85
2023-04-06T00:32:13.414Z,2.83
2023-04-06T00:34:16.861Z,2.70
2023-04-06T00:36:18.618Z,2.67
2023-04-06T00:38:20.447Z,3.03
2023-04-06T00:40:22.167Z,2.47
2023-04-06T00:42:27.142Z,2.35
2023-04-06T00:44:28.995Z,2.58
2023-04-06T00:46:30.787Z,2.70
2023-04-06T00:48:32.656Z,2.63
2023-04-06T00:50:34.841Z,2.83
2023-04-06T00:52:36.750Z,2.70
2023-04-06T00:54:38.512Z,2.35
2023-04-06T00:56:40.457Z,2.70
2023-04-06T00:58:42.153Z,2.45
2023-04-06T01:00:43.949Z,2.75
2023-04-06T01:02:49.171Z,2.50
2023-04-06T01:04:51.042Z,2.70
2023-04-06T01:06:52.804Z,2.70
2023-04-06T01:08:54.498Z,2.50
2023-04-06T01:10:56.481Z,2.45
2023-04-06T01:12:58.261Z,2.60
2023-04-06T01:15:00.967Z,2.70
2023-04-06T01:17:02.804Z,2.50
2023-04-06T01:19:14.102Z,2.92
2023-04-06T01:21:18.752Z,2.83
2023-04-06T01:23:20.587Z,2.38
2023-04-06T01:25:22.274Z,2.45
2023-04-06T01:27:23.998Z,2.67
2023-04-06T01:29:26.045Z,2.25
2023-04-06T01:31:28.135Z,2.55
2023-04-06T01:33:29.905Z,2.65
2023-04-06T01:35:31.853Z,2.83
2023-04-06T01:37:33.638Z,2.47
2023-04-06T01:39:35.365Z,2.35
2023-04-06T01:41:37.464Z,2.40
2023-04-06T01:43:39.237Z,2.50
2023-04-06T01:45:40.988Z,2.30
2023-04-06T01:47:42.961Z,2.55
2023-04-06T01:49:44.757Z,2.70
2023-04-06T01:51:46.406Z,2.65
2023-04-06T01:53:49.323Z,2.72
2023-04-06T01:55:51.386Z,2.60
2023-04-06T01:57:53.123Z,2.53
2023-04-06T01:59:54.824Z,2.63
2023-04-06T02:01:56.502Z,2.63
2023-04-06T02:03:58.206Z,2.55
2023-04-06T02:05:59.946Z,2.67
2023-04-06T02:08:01.589Z,2.70
2023-04-06T02:10:04.299Z,2.40
2023-04-06T02:12:06.346Z,2.20
2023-04-06T02:14:08.037Z,2.72
2023-04-06T02:16:09.769Z,2.70
2023-04-06T02:18:11.589Z,2.42
2023-04-06T02:20:13.543Z,2.50
2023-04-06T02:22:15.921Z,2.35
2023-04-06T02:24:17.688Z,2.58
2023-04-06T02:26:19.505Z,2.40
2023-04-06T02:28:21.152Z,2.30
2023-04-06T02:30:22.789Z,2.72
2023-04-06T02:32:24.744Z,2.10
2023-04-06T02:34:26.406Z,2.80
2023-04-06T02:36:28.066Z,2.50
2023-04-06T02:38:29.766Z,2.65
2023-04-06T02:40:31.440Z,2.53
2023-04-06T02:42:33.785Z,2.33
2023-04-06T02:44:35.827Z,2.60
2023-04-06T02:46:37.593Z,2.70
2023-04-06T02:48:39.346Z,2.38
2023-04-06T02:50:41.192Z,2.53
2023-04-06T02:52:42.918Z,2.25
2023-04-06T02:54:44.702Z,2.50
2023-04-06T02:56:46.370Z,2.38
2023-04-06T02:58:48.643Z,2.28
2023-04-06T03:00:50.450Z,2.42
2023-04-06T03:02:52.172Z,2.15
2023-04-06T03:04:53.865Z,2.50
2023-04-06T03:06:56.228Z,2.40
2023-04-06T03:08:57.992Z,2.10
2023-04-06T03:10:59.762Z,2.17
2023-04-06T03:13:01.406Z,2.38
2023-04-06T03:15:03.307Z,2.58
2023-04-06T03:17:05.321Z,2.50
2023-04-06T03:19:07.281Z,2.65
2023-04-06T03:21:09.106Z,2.42
2023-04-06T03:23:10.783Z,2.83
2023-04-06T03:25:12.484Z,2.65
2023-04-06T03:27:14.125Z,2.45
2023-04-06T03:29:15.819Z,2.42
2023-04-06T03:31:17.578Z,2.50
2023-04-06T03:33:19.225Z,2.30
2023-04-06T03:35:21.008Z,2.42
2023-04-06T03:37:22.744Z,2.47
2023-04-06T03:39:24.530Z,2.67
2023-04-06T03:41:26.211Z,2.50
2023-04-06T03:43:27.894Z,2.50
2023-04-06T03:45:29.598Z,2.40
2023-04-06T03:47:31.271Z,2.15
2023-04-06T03:49:33.081Z,2.10
2023-04-06T03:51:34.789Z,2.30
2023-04-06T03:53:38.109Z,2.15
2023-04-06T03:55:39.780Z,2.25
2023-04-06T03:57:41.543Z,2.28
2023-04-06T03:59:43.349Z,2.20
2023-04-06T04:01:45.226Z,2.40
2023-04-06T04:03:48.376Z,2.30
2023-04-06T04:05:51.958Z,2.50
2023-04-06T04:07:53.885Z,2.15
2023-04-06T04:09:55.743Z,2.20
2023-04-06T04:11:57.419Z,2.30
2023-04-06T04:13:59.085Z,2.20
2023-04-06T04:16:01.203Z,1.88
2023-04-06T04:18:03.123Z,2.10
2023-04-06T04:20:05.497Z,2.25
2023-04-06T04:22:07.549Z,2.35
2023-04-06T04:24:09.251Z,2.28
2023-04-06T04:26:11.228Z,2.67
2023-04-06T04:28:12.917Z,2.33
2023-04-06T04:30:14.632Z,2.20
2023-04-06T04:32:16.989Z,2.28
2023-04-06T04:34:21.577Z,2.70
2023-04-06T04:36:24.117Z,2.95
2023-04-06T04:38:25.921Z,2.58
2023-04-06T04:40:27.598Z,2.80
2023-04-06T04:42:29.363Z,2.90
2023-04-06T04:44:31.015Z,2.95
2023-04-06T04:46:32.690Z,2.85
2023-04-06T04:48:34.474Z,2.70
2023-04-06T04:50:36.206Z,3.47
2023-04-06T04:52:38.906Z,2.78
2023-04-06T04:54:41.988Z,3.08
2023-04-06T04:56:43.658Z,2.97
2023-04-06T04:58:45.328Z,2.80
2023-04-06T05:00:47.855Z,2.90
2023-04-06T05:02:49.678Z,2.63
2023-04-06T05:04:51.550Z,2.60
2023-04-06T05:07:07.474Z,3.03
2023-04-06T05:09:09.341Z,3.03
2023-04-06T05:11:11.374Z,3.00
2023-04-06T05:13:13.246Z,2.40
2023-04-06T05:15:15.054Z,2.63
2023-04-06T05:17:16.905Z,2.67
2023-04-06T05:19:18.779Z,2.70
2023-04-06T05:21:20.630Z,2.95
2023-04-06T05:23:22.293Z,2.72
2023-04-06T05:25:24.046Z,3.05
2023-04-06T05:27:26.030Z,2.92
2023-04-06T05:29:27.738Z,3.47
2023-04-06T05:31:30.514Z,3.00
2023-04-06T05:33:32.328Z,2.92
2023-04-06T05:35:34.104Z,2.85
2023-04-06T05:37:35.978Z,3.42
2023-04-06T05:39:37.635Z,2.75
2023-04-06T05:41:39.258Z,3.33
2023-04-06T05:43:40.896Z,3.60
2023-04-06T05:45:44.799Z,3.30
2023-04-06T05:47:46.855Z,2.75
2023-04-06T05:49:48.603Z,3.30
2023-04-06T05:51:50.398Z,3.20
2023-04-06T05:53:52.090Z,3.30
2023-04-06T05:55:53.788Z,3.15
2023-04-06T05:57:55.504Z,3.58
2023-04-06T05:59:57.281Z,3.55
2023-04-06T06:01:58.997Z,3.78
2023-04-06T06:04:02.997Z,2.92
2023-04-06T06:06:05.778Z,3.45
2023-04-06T06:08:07.985Z,2.92
2023-04-06T06:10:10.239Z,3.08
2023-04-06T06:12:14.011Z,3.47
2023-04-06T06:14:16.305Z,3.33
2023-04-06T06:16:19.205Z,3.10
2023-04-06T06:18:20.958Z,3.38
2023-04-06T06:20:22.809Z,3.33
2023-04-06T06:22:24.508Z,3.70
2023-04-06T06:24:26.434Z,3.15
2023-04-06T06:26:28.203Z,3.42
2023-04-06T06:28:29.907Z,3.30
2023-04-06T06:30:31.693Z,3.72
2023-04-06T06:32:33.500Z,3.53
2023-04-06T06:34:35.587Z,3.45
2023-04-06T06:36:37.356Z,3.50
2023-04-06T06:38:39.773Z,3.33
2023-04-06T06:40:42.160Z,3.13
2023-04-06T06:42:43.855Z,3.40
2023-04-06T06:44:45.908Z,3.13
2023-04-06T06:46:47.555Z,3.35
2023-04-06T06:48:49.279Z,2.80
2023-04-06T06:50:51.093Z,2.88
2023-04-06T06:52:52.843Z,3.15
2023-04-06T06:54:56.386Z,3.30
2023-04-06T06:56:59.228Z,3.05
2023-04-06T06:59:01.085Z,3.30
2023-04-06T07:01:02.933Z,3.30
2023-04-06T07:03:04.783Z,3.67
2023-04-06T07:05:23.828Z,3.20
2023-04-06T07:07:29.069Z,3.22
2023-04-06T07:09:30.801Z,2.92
2023-04-06T07:11:32.481Z,2.72
2023-04-06T07:13:34.158Z,2.90
2023-04-06T07:15:36.023Z,2.90
2023-04-06T07:17:37.809Z,3.20
2023-04-06T07:19:40.709Z,2.50
2023-04-06T07:21:42.571Z,3.42
2023-04-06T07:23:44.684Z,2.80
2023-04-06T07:25:46.567Z,3.13
2023-04-06T07:27:49.033Z,3.30
2023-04-06T07:29:50.825Z,2.92
2023-04-06T07:31:52.721Z,3.22
2023-04-06T07:33:54.404Z,2.85
2023-04-06T07:35:56.565Z,2.58
2023-04-06T07:37:58.684Z,2.90
2023-04-06T07:40:00.546Z,3.22
2023-04-06T07:42:02.365Z,3.03
2023-04-06T07:44:04.627Z,2.63
2023-04-06T07:46:06.433Z,3.65
2023-04-06T07:48:08.281Z,2.88
2023-04-06T07:50:11.031Z,3.08
2023-04-06T07:52:12.847Z,3.08
2023-04-06T07:54:14.545Z,2.78
2023-04-06T07:56:16.481Z,2.38
2023-04-06T07:58:18.242Z,2.80
2023-04-06T08:00:20.400Z,2.65
2023-04-06T08:02:22.237Z,3.03
2023-04-06T08:04:24.003Z,2.80
2023-04-06T08:06:25.985Z,2.70
2023-04-06T08:08:27.875Z,2.70
2023-04-06T08:10:29.619Z,2.60
2023-04-06T08:12:31.347Z,3.20
2023-04-06T08:14:33.078Z,2.75
2023-04-06T08:16:34.729Z,3.30
2023-04-06T08:18:36.414Z,2.70
2023-04-06T08:20:38.173Z,2.50
2023-04-06T08:22:39.862Z,2.85
2023-04-06T08:24:41.618Z,2.67
2023-04-06T08:26:43.302Z,2.63
2023-04-06T08:28:46.918Z,3.00
2023-04-06T08:30:49.105Z,2.42
2023-04-06T08:32:51.079Z,2.92
2023-04-06T08:34:55.999Z,2.80
2023-04-06T08:36:57.696Z,2.65
2023-04-06T08:39:00.808Z,3.03
2023-04-06T08:41:11.394Z,3.30
2023-04-06T08:43:15.135Z,3.30
2023-04-06T08:45:18.692Z,2.67
2023-04-06T08:47:23.960Z,2.88
2023-04-06T08:49:27.245Z,2.88
2023-04-06T08:51:31.013Z,2.70
2023-04-06T08:53:32.764Z,2.72
2023-04-06T08:55:35.245Z,3.17
2023-04-06T08:57:38.123Z,2.80
2023-04-06T08:59:40.483Z,2.78
2023-04-06T09:01:46.895Z,2.72
2023-04-06T09:03:50.565Z,2.70
2023-04-06T09:05:52.452Z,2.80
2023-04-06T09:07:54.342Z,2.60
2023-04-06T09:09:56.141Z,3.00
2023-04-06T09:12:04.391Z,3.05
2023-04-06T09:14:06.286Z,3.05
2023-04-06T09:16:08.153Z,2.90
2023-04-06T09:18:10.242Z,2.63
2023-04-06T09:20:13.097Z,2.35
2023-04-06T09:22:14.841Z,2.60
2023-04-06T09:24:19.127Z,2.90
2023-04-06T09:26:21.070Z,2.42
2023-04-06T09:28:22.798Z,2.88
2023-04-06T09:30:25.846Z,3.00
2023-04-06T09:32:27.617Z,2.50
2023-04-06T09:34:29.371Z,2.60
2023-04-06T09:36:36.020Z,3.05
2023-04-06T09:39:01.286Z,2.90
2023-04-06T09:41:02.940Z,3.03
2023-04-06T09:43:07.937Z,2.65
2023-04-06T09:45:10.186Z,2.55
2023-04-06T09:47:12.189Z,2.33
2023-04-06T09:49:14.978Z,2.50
2023-04-06T09:51:19.249Z,2.45
2023-04-06T09:53:22.313Z,2.78
2023-04-06T09:55:36.084Z,2.72
2023-04-06T09:57:47.038Z,2.03
2023-04-06T10:00:10.556Z,2.25
2023-04-06T10:02:35.113Z,2.47
2023-04-06T10:04:55.356Z,2.55
2023-04-06T10:06:59.867Z,2.47
2023-04-06T10:09:05.096Z,2.38
2023-04-06T10:11:07.197Z,2.20
2023-04-06T10:13:12.079Z,2.05
2023-04-06T10:15:13.881Z,2.28
2023-04-06T10:17:15.620Z,2.17
2023-04-06T10:19:24.056Z,2.53
2023-04-06T10:21:28.261Z,2.20
2023-04-06T10:23:46.328Z,2.38
2023-04-06T10:25:55.884Z,2.47
2023-04-06T10:28:08.260Z,2.10
2023-04-06T10:30:10.137Z,1.88
2023-04-06T10:32:12.019Z,2.20
2023-04-06T10:34:13.901Z,2.17
2023-04-06T10:36:24.225Z,1.90
2023-04-06T10:38:41.626Z,1.80
2023-04-06T10:40:44.054Z,2.28
2023-04-06T10:42:45.768Z,2.17
2023-04-06T10:44:50.964Z,1.70
2023-04-06T10:47:01.745Z,2.20
2023-04-06T10:49:13.480Z,2.35
2023-04-06T10:51:21.340Z,2.05
2023-04-06T10:53:25.023Z,2.08
2023-04-06T10:55:28.900Z,1.77
2023-04-06T10:57:32.921Z,2.10
2023-04-06T10:59:34.749Z,1.85
2023-04-06T11:01:36.775Z,1.90
2023-04-06T11:03:49.856Z,2.03
2023-04-06T11:05:52.465Z,1.90
2023-04-06T11:07:54.308Z,1.80
2023-04-06T11:10:11.607Z,2.08
2023-04-06T11:12:26.599Z,2.10
2023-04-06T11:14:28.353Z,2.00
2023-04-06T11:16:32.274Z,1.80
2023-04-06T11:18:34.151Z,1.98
2023-04-06T11:20:35.955Z,1.92
2023-04-06T11:22:37.715Z,1.77
2023-04-06T11:24:39.409Z,1.80
2023-04-06T11:26:49.458Z,1.70
2023-04-06T11:28:51.487Z,2.10
2023-04-06T11:30:54.087Z,1.63
2023-04-06T11:33:02.434Z,1.42
2023-04-06T11:35:04.267Z,1.77
2023-04-06T11:37:10.181Z,1.60
2023-04-06T11:39:13.270Z,1.80
2023-04-06T11:41:14.973Z,1.70
2023-04-06T11:43:16.737Z,1.85
2023-04-06T11:45:18.374Z,1.63
2023-04-06T11:47:21.476Z,1.73
2023-04-06T11:49:23.243Z,1.63
2023-04-06T11:51:25.179Z,1.70
2023-04-06T11:53:30.821Z,1.60
2023-04-06T11:55:39.377Z,1.65
2023-04-06T11:57:41.356Z,1.58
2023-04-06T11:59:43.417Z,1.70
2023-04-06T12:01:48.593Z,1.83
2023-04-06T12:03:52.175Z,1.55
2023-04-06T12:05:54.015Z,1.70
2023-04-06T12:07:56.113Z,1.50
2023-04-06T12:09:59.255Z,1.50
2023-04-06T12:12:01.509Z,1.85
2023-04-06T12:14:05.748Z,1.50
2023-04-06T12:16:07.496Z,1.55
2023-04-06T12:18:09.506Z,1.83
2023-04-06T12:20:24.723Z,1.65
2023-04-06T12:22:27.917Z,1.85
2023-04-06T12:24:30.049Z,1.70
2023-04-06T12:26:32.348Z,1.83
2023-04-06T12:28:34.089Z,1.67
2023-04-06T12:30:36.453Z,1.60
2023-04-06T12:32:38.141Z,1.50
2023-04-06T12:34:39.908Z,1.80
2023-04-06T12:36:41.763Z,1.60
2023-04-06T12:38:45.682Z,1.83
2023-04-06T12:40:47.382Z,1.55
2023-04-06T12:42:49.048Z,1.38
2023-04-06T12:44:50.798Z,1.77
2023-04-06T12:46:53.485Z,1.60
2023-04-06T12:48:56.109Z,1.50
2023-04-06T12:50:59.447Z,1.30
2023-04-06T12:53:01.307Z,1.60
2023-04-06T12:55:03.960Z,1.50
2023-04-06T12:57:06.011Z,1.60
2023-04-06T12:59:08.314Z,1.30
2023-04-06T13:01:10.490Z,1.30
2023-04-06T13:03:12.369Z,1.50
2023-04-06T13:05:19.398Z,1.35
2023-04-06T13:07:21.097Z,1.60
2023-04-06T13:09:23.113Z,2.10
2023-04-06T13:11:28.711Z,1.85
2023-04-06T13:13:31.670Z,2.10
2023-04-06T13:15:35.764Z,3.83
2023-04-06T13:17:37.515Z,2.33
2023-04-06T13:19:39.262Z,2.50
2023-04-06T13:21:40.986Z,2.63
2023-04-06T13:23:42.672Z,2.33
2023-04-06T13:25:44.393Z,2.53
2023-04-06T13:27:48.487Z,2.20
2023-04-06T13:29:50.389Z,2.30
2023-04-06T13:31:52.300Z,2.42
2023-04-06T13:33:54.073Z,2.50
2023-04-06T13:35:56.168Z,3.13
2023-04-06T13:37:57.837Z,2.78
2023-04-06T13:40:01.093Z,3.10
2023-04-06T13:42:04.095Z,3.10
2023-04-06T13:44:05.961Z,2.80
2023-04-06T13:46:07.659Z,2.55
2023-04-06T13:48:09.459Z,2.65
2023-04-06T13:50:11.487Z,2.83
2023-04-06T13:52:13.424Z,2.60
2023-04-06T13:54:15.199Z,2.63
2023-04-06T13:56:16.836Z,3.45
2023-04-06T13:58:18.497Z,3.00
2023-04-06T14:00:20.397Z,3.28
2023-04-06T14:02:28.229Z,2.88
2023-04-06T14:04:30.981Z,3.20
2023-04-06T14:06:32.657Z,3.22
2023-04-06T14:08:34.324Z,3.40
2023-04-06T14:10:41.113Z,3.50
2023-04-06T14:12:46.076Z,2.90
2023-04-06T14:14:47.790Z,3.15
2023-04-06T14:16:49.663Z,3.30
2023-04-06T14:18:52.065Z,3.15
2023-04-06T14:21:00.413Z,2.90
2023-04-06T14:23:02.732Z,3.20
2023-04-06T14:25:04.585Z,3.03
2023-04-06T14:27:06.297Z,3.05
2023-04-06T14:29:08.306Z,2.67
2023-04-06T14:31:15.950Z,3.40
2023-04-06T14:33:17.689Z,2.80
2023-04-06T14:35:19.362Z,2.33
2023-04-06T14:37:22.069Z,3.22
2023-04-06T14:39:23.770Z,3.00
2023-04-06T14:41:28.525Z,2.90
2023-04-06T14:43:30.713Z,2.38
2023-04-06T14:45:35.712Z,2.50
2023-04-06T14:47:37.341Z,2.90
2023-04-06T14:49:39.006Z,2.88
2023-04-06T14:51:41.364Z,2.50
2023-04-06T14:53:43.442Z,2.35
2023-04-06T14:55:45.328Z,2.55
2023-04-06T14:57:47.058Z,2.53
2023-04-06T14:59:48.921Z,2.45
2023-04-06T15:01:50.693Z,2.92
2023-04-06T15:03:52.412Z,3.20
2023-04-06T15:05:55.085Z,3.28
2023-04-06T15:07:56.774Z,3.90
2023-04-06T15:09:58.445Z,3.85
2023-04-06T15:12:01.238Z,3.47
2023-04-06T15:14:03.003Z,4.30
2023-04-06T15:16:05.991Z,3.35
2023-04-06T15:18:07.811Z,3.10
2023-04-06T15:20:09.936Z,3.55
2023-04-06T15:22:12.421Z,3.13
2023-04-06T15:24:14.070Z,3.05
2023-04-06T15:26:15.746Z,3.38
2023-04-06T15:28:17.397Z,2.83
2023-04-06T15:30:19.163Z,3.88
2023-04-06T15:32:21.166Z,3.80
2023-04-06T15:34:23.053Z,4.13
2023-04-06T15:36:27.183Z,4.45
2023-04-06T15:38:29.992Z,3.95
2023-04-06T15:40:31.895Z,3.83
2023-04-06T15:42:33.556Z,4.13
2023-04-06T15:44:35.437Z,4.28
2023-04-06T15:46:37.059Z,3.95
2023-04-06T15:48:38.853Z,3.50
2023-04-06T15:50:40.535Z,4.93
2023-04-06T15:52:42.386Z,3.53
2023-04-06T15:54:44.050Z,4.07
2023-04-06T15:56:46.149Z,3.92
2023-04-06T15:58:48.191Z,4.28
2023-04-06T16:00:49.971Z,4.65
2023-04-06T16:02:51.788Z,4.15
2023-04-06T16:04:57.909Z,4.50
2023-04-06T16:06:59.557Z,3.47
2023-04-06T16:09:01.858Z,3.75
2023-04-06T16:11:03.883Z,3.95
2023-04-06T16:13:05.928Z,4.47
2023-04-06T16:15:08.325Z,3.72
2023-04-06T16:17:10.107Z,4.60
2023-04-06T16:19:11.817Z,3.75
2023-04-06T16:21:19.692Z,4.28
2023-04-06T16:23:21.575Z,3.78
2023-04-06T16:25:23.175Z,3.53
2023-04-06T16:27:24.826Z,3.53
2023-04-06T16:29:31.748Z,4.03
2023-04-06T16:31:33.490Z,4.53
2023-04-06T16:33:35.286Z,3.78
2023-04-06T16:35:43.590Z,4.55
2023-04-06T16:37:46.516Z,4.28
2023-04-06T16:39:48.193Z,3.80
2023-04-06T16:41:50.015Z,4.28
2023-04-06T16:43:51.710Z,4.07
2023-04-06T16:45:53.536Z,3.85
2023-04-06T16:47:55.285Z,4.05
2023-04-06T16:50:05.787Z,3.88
2023-04-06T16:54:09.666Z,3.72
2023-04-06T16:56:11.313Z,3.97
2023-04-06T16:58:13.034Z,3.95
2023-04-06T17:00:15.417Z,3.90
2023-04-06T17:02:17.124Z,4.05
2023-04-06T17:04:19.263Z,4.20
2023-04-06T17:06:21.003Z,3.55
2023-04-06T17:08:22.631Z,3.97
2023-04-06T17:10:33.097Z,3.63
2023-04-06T17:12:36.347Z,4.22
2023-04-06T17:14:38.091Z,3.33
2023-04-06T17:16:39.786Z,4.18
2023-04-06T17:18:41.432Z,3.13
2023-04-06T17:20:43.184Z,3.08
2023-04-06T17:22:49.319Z,3.42
2023-04-06T17:24:51.231Z,3.17
2023-04-06T17:26:52.893Z,3.78
2023-04-06T17:28:54.543Z,3.40
2023-04-06T17:30:57.055Z,3.40
2023-04-06T17:32:58.816Z,4.18
2023-04-06T17:35:00.596Z,6.82
2023-04-06T17:37:02.348Z,5.93
2023-04-06T17:39:04.063Z,5.75
2023-04-06T17:41:07.585Z,5.13
2023-04-06T17:43:09.281Z,5.10
2023-04-06T17:45:11.104Z,4.55
2023-04-06T17:47:12.756Z,4.60
2023-04-06T17:49:14.378Z,4.22
2023-04-06T17:51:18.906Z,4.10
2023-04-06T17:53:20.650Z,3.67
2023-04-06T17:55:22.975Z,3.90
2023-04-06T17:57:24.627Z,3.75
2023-04-06T17:59:26.353Z,4.60
2023-04-06T18:01:28.112Z,4.20
2023-04-06T18:03:29.888Z,3.60
2023-04-06T18:05:31.691Z,3.40
2023-04-06T18:07:33.396Z,3.67
2023-04-06T18:09:35.396Z,4.57
2023-04-06T18:11:37.026Z,4.90
2023-04-06T18:13:40.103Z,3.28
2023-04-06T18:15:42.176Z,4.20
2023-04-06T18:17:45.463Z,3.72
2023-04-06T18:19:47.553Z,3.83
2023-04-06T18:21:49.162Z,4.22
2023-04-06T18:23:50.895Z,3.92
2023-04-06T18:25:52.748Z,3.78
2023-04-06T18:27:54.448Z,3.97
2023-04-06T18:29:56.118Z,3.90
2023-04-06T18:31:57.808Z,3.83
2023-04-06T18:33:59.668Z,3.42
2023-04-06T18:36:01.442Z,3.58
2023-04-06T18:38:03.074Z,3.45
2023-04-06T18:40:05.628Z,3.53
2023-04-06T18:42:07.258Z,3.38
2023-04-06T18:44:08.992Z,3.92
2023-04-06T18:46:15.599Z,3.10
2023-04-06T18:48:17.344Z,3.35
2023-04-06T18:50:18.988Z,2.70
2023-04-06T18:52:20.756Z,3.67
2023-04-06T18:54:22.509Z,3.67
2023-04-06T18:56:24.225Z,3.10
2023-04-06T18:58:26.628Z,2.90
2023-04-06T19:00:28.360Z,3.45
2023-04-06T19:02:30.457Z,3.58
2023-04-06T19:04:32.440Z,4.22
2023-04-06T19:06:34.275Z,3.42
2023-04-06T19:08:36.079Z,3.20
2023-04-06T19:10:38.604Z,3.33
2023-04-06T19:12:40.264Z,2.95
2023-04-06T19:14:42.975Z,2.75
2023-04-06T19:16:52.067Z,4.30
2023-04-06T19:18:54.209Z,3.80
2023-04-06T19:20:56.026Z,3.22
2023-04-06T19:22:57.947Z,2.88
2023-04-06T19:24:59.639Z,2.92
2023-04-06T19:27:02.527Z,2.88
2023-04-06T19:29:04.286Z,2.90
2023-04-06T19:31:08.680Z,2.95
2023-04-06T19:33:10.553Z,2.50
2023-04-06T19:35:12.265Z,2.83
2023-04-06T19:37:14.036Z,3.15
2023-04-06T19:39:18.651Z,2.28
2023-04-06T19:41:21.573Z,2.55
2023-04-06T19:43:23.218Z,2.53
2023-04-06T19:45:24.889Z,2.80
2023-04-06T19:47:26.567Z,2.47
2023-04-06T19:49:28.488Z,2.30
2023-04-06T19:51:34.218Z,2.72
2023-04-06T19:53:36.629Z,2.47
2023-04-06T19:55:38.925Z,2.40
2023-04-06T19:57:41.035Z,2.17
2023-04-06T19:59:43.291Z,2.20
2023-04-06T20:01:46.347Z,2.05
2023-04-06T20:03:48.444Z,2.20
2023-04-06T20:05:50.259Z,2.10
2023-04-06T20:07:52.149Z,2.00
2023-04-06T20:09:53.917Z,2.08
2023-04-06T20:11:55.663Z,2.13
2023-04-06T20:13:57.286Z,2.13
2023-04-06T20:15:59.195Z,1.65
2023-04-06T20:18:00.855Z,1.73
2023-04-06T20:20:02.551Z,2.30
2023-04-06T20:22:04.952Z,1.88
2023-04-06T20:24:06.765Z,1.77
2023-04-06T20:26:10.217Z,1.77
2023-04-06T20:28:12.312Z,1.63
2023-04-06T20:30:15.230Z,2.03
2023-04-06T20:32:20.658Z,1.55
2023-04-06T20:34:25.913Z,1.90
2023-04-06T20:36:28.027Z,2.35
2023-04-06T20:38:33.562Z,2.00
2023-04-06T20:40:35.483Z,2.00
2023-04-06T20:42:37.381Z,1.80
2023-04-06T20:44:39.349Z,1.92
2023-04-06T20:46:41.169Z,1.60
2023-04-06T20:48:43.138Z,1.65
2023-04-06T20:50:44.814Z,2.10
2023-04-06T20:52:47.298Z,2.08
2023-04-06T20:54:50.626Z,2.10
2023-04-06T20:56:52.398Z,1.98
2023-04-06T20:58:54.117Z,1.95
2023-04-06T21:00:55.920Z,1.70
2023-04-06T21:02:57.869Z,1.95
2023-04-06T21:04:59.601Z,1.80
2023-04-06T21:07:04.552Z,1.73
2023-04-06T21:09:06.303Z,1.48
2023-04-06T21:11:08.110Z,1.67
2023-04-06T21:13:09.862Z,1.80
2023-04-06T21:15:11.752Z,1.58
2023-04-06T21:17:13.606Z,1.40
2023-04-06T21:19:15.226Z,1.50
2023-04-06T21:21:16.877Z,1.85
2023-04-06T21:23:18.564Z,1.90
2023-04-06T21:25:20.224Z,1.80
2023-04-06T21:27:22.194Z,1.75
2023-04-06T21:29:23.835Z,1.65
2023-04-06T21:31:25.659Z,1.77
2023-04-06T21:33:27.450Z,1.95
2023-04-06T21:35:29.121Z,1.48
2023-04-06T21:37:30.929Z,1.67
2023-04-06T21:39:32.542Z,1.40
2023-04-06T21:41:34.838Z,1.90
2023-04-06T21:43:36.748Z,1.40
2023-04-06T21:45:38.576Z,1.63
2023-04-06T21:47:40.269Z,1.58
2023-04-06T21:49:42.081Z,1.48
2023-04-06T21:51:43.733Z,1.40
2023-04-06T21:53:45.770Z,1.13
2023-04-06T21:55:47.815Z,1.48
2023-04-06T21:57:49.519Z,1.50
2023-04-06T21:59:51.180Z,1.40
2023-04-06T22:01:53.739Z,1.67
2023-04-06T22:03:57.358Z,1.58
2023-04-06T22:06:02.853Z,1.20
2023-04-06T22:08:04.761Z,1.45
2023-04-06T22:10:06.848Z,1.35
2023-04-06T22:12:08.677Z,1.35
2023-04-06T22:14:10.841Z,1.65
2023-04-06T22:16:12.632Z,1.60
2023-04-06T22:18:14.311Z,1.33
2023-04-06T22:20:16.058Z,1.50
2023-04-06T22:22:17.819Z,1.45
2023-04-06T22:24:19.922Z,1.58
2023-04-06T22:26:22.260Z,1.55
2023-04-06T22:28:25.072Z,1.50
2023-04-06T22:30:26.792Z,1.25
2023-04-06T22:32:28.559Z,1.60
2023-04-06T22:34:30.405Z,1.50
2023-04-06T22:36:32.197Z,1.15
2023-04-06T22:38:33.838Z,1.70
2023-04-06T22:40:35.499Z,1.23
2023-04-06T22:42:37.519Z,1.50
2023-04-06T22:44:39.228Z,1.40
2023-04-06T22:46:40.902Z,1.38
2023-04-06T22:48:42.542Z,1.27
2023-04-06T22:50:44.235Z,1.33
2023-04-06T22:52:46.358Z,1.40
2023-04-06T22:54:48.051Z,1.52
2023-04-06T22:56:50.264Z,1.67
2023-04-06T22:58:51.972Z,1.50
2023-04-06T23:00:53.589Z,1.40
2023-04-06T23:02:55.714Z,1.17
2023-04-06T23:04:57.577Z,1.20
2023-04-06T23:06:59.263Z,1.38
2023-04-06T23:09:00.937Z,1.20
2023-04-06T23:11:02.556Z,1.00
2023-04-06T23:13:04.201Z,1.48
2023-04-06T23:15:06.464Z,1.20
2023-04-06T23:17:09.475Z,1.30
2023-04-06T23:19:11.414Z,1.50
2023-04-06T23:21:13.019Z,1.40
2023-04-06T23:23:14.651Z,1.73
2023-04-06T23:25:16.436Z,1.50
2023-04-06T23:27:18.085Z,1.23
2023-04-06T23:29:19.735Z,1.20
2023-04-06T23:31:21.423Z,1.27
2023-04-06T23:33:23.150Z,1.65
2023-04-06T23:35:24.818Z,1.80
2023-04-06T23:37:27.179Z,1.67
2023-04-06T23:39:29.720Z,1.42
2023-04-06T23:41:31.612Z,1.30
2023-04-06T23:43:33.257Z,1.35
2023-04-06T23:45:35.022Z,1.45
2023-04-06T23:47:36.727Z,1.42
2023-04-06T23:49:38.624Z,1.52
2023-04-06T23:51:40.344Z,1.42
2023-04-06T23:53:42.165Z,1.08
2023-04-06T23:55:43.889Z,1.38
2023-04-06T23:57:45.629Z,1.45
2023-04-06T23:59:47.306Z,1.25
